Terminal Aerodrome Forecast
Issued by NWS

Home | Current Version | Previous Version | Text Only | Print | Product List | Glossary On
Versions: 1 2 3 4 5 6 7 8 9 10 11 12 13 14 15
000
FTUS45 KABQ 301734
TAFAEG
TAF
KAEG 301734Z 3018/3118 01007KT P6SM VCSH SCT030 BKN080
     FM302100 13008KT P6SM VCSH SCT050 BKN080
      TEMPO 3021/3024 BKN050
     FM310000 11007KT P6SM VCTS BKN050CB OVC080
      TEMPO 3100/3104 VRB15G25KT 5SM TSRA OVC030CB
     FM310600 33006KT P6SM VCSH BKN025 BKN050
     FM311500 VRB06KT P6SM SCT030 BKN070=

USA.gov is the U.S. government's official web portal to all federal, state and local government web resources and services.